Ana Sayfa
METAR-TAF:

METAR-TAF

Havaalanları :

Las Cruces International Airport

Las Cruces, New Mexico, Amerika Birleşik Devletleri

Enlem: 32-17-22N, Boylam: 106-55-19W, yükseklik: 1358 m

Güncel hava durumu gözlemi

Rapor saat 08:15 UTC de 22 dakika önce yapıldı.
Rüzgar kuzey/kuzeybatıdan 3 kt
Sıcaklık 20°C
Nem 35%
Basınç 1016 hPa
Görüş mesafesi: 16.1 km
Açık gökyüzü

METAR: KLRU 180815Z AUTO 34003KT 10SM CLR 20/04 A3001 RMK AO2 T02040036

Saat: 02:37 (08:37 UTC)

Tahmin

Rapor saat 05:20 UTC de 3 saat ve 17 dakika önce yapıldı.
Ayın 18'si saat 06 UTC'den ayın 19'si saat 06 UTC'ye kadar geçerli Tahmin
Rüzgar batıdan 6 kt
Görüş mesafesi: 10 km
25000 ft yükseklikte az bulutlu
Ayın 18'si saat 1800 UTC'den
Rüzgar batı/güneybatıdan 16 kt ve 25 kt'a kadar ani rüzgarlar
Görüş mesafesi: 10 km
25000 ft yükseklikte az bulutlu

TAF: KLRU 180520Z 1806/1906 28006KT P6SM FEW250 FM181800 24016G25KT P6SM FEW250

4.000'den fazla havaalanı için hava durumu gözlemleri ve tahminleri (METAR ve TAF raporları).

Kullanılabilir istasyonlar harita üzerinde sarı ve kırmızı noktalarla gösterilir.

İstasyonun adını görmek için fareyi noktanın üzerinde gezdirin.

Sonrasında hava gözlem ve tahminlerini görmek için tıklayın.

Haritayı değiştirmek için: yaklaştırmak için siyah artı işaretli yeşil düğmeye ve uzaklaştırmak için de eksi işaretli düğmeye hızla tıklayın; bitişik haritalar için yeşil okları kullanın.


METAR-TAF: